createdAt,value
2023-01-04T00:02:41.787Z,99394.66
2023-01-04T00:07:43.746Z,99395.81
2023-01-04T00:12:45.621Z,99391.84
2023-01-04T00:17:47.919Z,99390.53
2023-01-04T00:22:49.835Z,99375.97
2023-01-04T00:27:53.211Z,99371.03
2023-01-04T00:32:57.011Z,99367.63
2023-01-04T00:37:58.939Z,99371.25
2023-01-04T00:43:00.947Z,99367.75
2023-01-04T00:48:02.848Z,99359.19
2023-01-04T00:53:04.738Z,99348.97
2023-01-04T00:58:07.371Z,99333.59
2023-01-04T01:03:09.393Z,99337.81
2023-01-04T01:08:26.292Z,99343.81
2023-01-04T01:13:28.081Z,99331.84
2023-01-04T01:18:30.526Z,99320.81
2023-01-04T01:23:32.797Z,99310.50
2023-01-04T01:28:36.474Z,99312.97
2023-01-04T01:33:40.577Z,99305.09
2023-01-04T01:38:43.561Z,99306.75
2023-01-04T01:44:00.957Z,99300.66
2023-01-04T01:49:18.602Z,99291.28
2023-01-04T01:54:27.534Z,99286.81
2023-01-04T01:59:32.042Z,99281.78
2023-01-04T02:04:36.136Z,99276.59
2023-01-04T02:09:38.247Z,99279.19
2023-01-04T02:14:43.215Z,99285.28
2023-01-04T02:19:44.914Z,99273.44
2023-01-04T02:25:10.916Z,99259.00
2023-01-04T02:30:46.314Z,99253.25
2023-01-04T02:35:54.099Z,99238.94
2023-01-04T02:41:08.428Z,99228.03
2023-01-04T02:46:18.989Z,99215.47
2023-01-04T02:51:35.687Z,99206.09
2023-01-04T02:57:05.240Z,99197.66
2023-01-04T03:02:48.232Z,99197.75
2023-01-04T03:08:21.679Z,99177.25
2023-01-04T03:13:36.213Z,99166.00
2023-01-04T03:18:43.428Z,99164.59
2023-01-04T03:24:07.262Z,99159.66
2023-01-04T03:29:38.122Z,99148.03
2023-01-04T03:34:58.970Z,99142.19
2023-01-04T03:40:52.035Z,99133.03
2023-01-04T03:46:23.462Z,99112.88
2023-01-04T03:51:37.010Z,99101.16
2023-01-04T03:56:42.738Z,99095.28
2023-01-04T04:01:45.439Z,99083.91
2023-01-04T04:07:05.983Z,99069.75
2023-01-04T04:12:08.151Z,99064.72
2023-01-04T04:17:10.103Z,99061.66
2023-01-04T04:22:11.909Z,99056.16
2023-01-04T04:27:13.872Z,99041.25
2023-01-04T04:32:15.726Z,99025.53
2023-01-04T04:37:17.765Z,99022.03
2023-01-04T04:42:19.956Z,99009.72
2023-01-04T04:47:21.846Z,98999.03
2023-01-04T04:52:23.571Z,99011.56
2023-01-04T04:57:25.297Z,99003.59
2023-01-04T05:02:27.250Z,98978.47
2023-01-04T05:07:29.319Z,98977.41
2023-01-04T05:12:54.313Z,98981.50
2023-01-04T05:17:59.639Z,98984.78
2023-01-04T05:23:01.492Z,98980.22
2023-01-04T05:28:03.393Z,98976.69
2023-01-04T05:33:06.266Z,98949.00
2023-01-04T05:38:08.157Z,98942.75
2023-01-04T05:43:10.357Z,98922.00
2023-01-04T05:48:12.672Z,98922.81
2023-01-04T05:53:17.801Z,98924.56
2023-01-04T05:58:19.656Z,98909.91
2023-01-04T06:03:21.682Z,98902.16
2023-01-04T06:08:23.729Z,98885.16
2023-01-04T06:13:25.631Z,98880.69
2023-01-04T06:18:27.568Z,98875.28
2023-01-04T06:23:29.515Z,98868.00
2023-01-04T06:28:34.270Z,98854.84
2023-01-04T06:33:40.629Z,98835.56
2023-01-04T06:38:42.328Z,98836.94
2023-01-04T06:43:44.231Z,98817.41
2023-01-04T06:48:46.332Z,98807.66
2023-01-04T06:53:49.137Z,98809.03
2023-01-04T06:58:50.965Z,98806.88
2023-01-04T07:03:52.699Z,98804.72
2023-01-04T07:08:55.706Z,98790.84
2023-01-04T07:13:57.573Z,98782.84
2023-01-04T07:18:59.522Z,98779.88
2023-01-04T07:24:01.420Z,98775.81
2023-01-04T07:29:17.132Z,98773.78
2023-01-04T07:34:23.024Z,98777.59
2023-01-04T07:39:24.946Z,98784.97
2023-01-04T07:44:28.203Z,98771.78
2023-01-04T07:49:30.135Z,98767.03
2023-01-04T07:54:32.041Z,98766.75
2023-01-04T07:59:34.048Z,98779.28
2023-01-04T08:04:35.940Z,98769.50
2023-01-04T08:09:37.818Z,98764.06
2023-01-04T08:14:39.593Z,98765.00
2023-01-04T08:19:41.447Z,98750.44
2023-01-04T08:24:43.340Z,98737.66
2023-01-04T08:29:45.180Z,98726.38
2023-01-04T08:34:47.083Z,98729.78
2023-01-04T08:39:50.050Z,98709.09
2023-01-04T08:44:58.690Z,98679.84
2023-01-04T08:50:08.166Z,98662.72
2023-01-04T08:55:13.898Z,98650.47
2023-01-04T09:00:19.257Z,98640.81
2023-01-04T09:05:22.082Z,98634.56
2023-01-04T09:10:24.912Z,98635.50
2023-01-04T09:15:26.706Z,98633.75
2023-01-04T09:20:29.084Z,98621.91
2023-01-04T09:25:30.945Z,98625.44
2023-01-04T09:30:32.702Z,98622.03
2023-01-04T09:35:35.575Z,98613.34
2023-01-04T09:40:54.708Z,98608.03
2023-01-04T09:46:04.205Z,98608.72
2023-01-04T09:51:11.686Z,98600.81
2023-01-04T09:56:26.509Z,98574.03
2023-01-04T10:01:53.825Z,98573.88
2023-01-04T10:07:00.930Z,98546.78
2023-01-04T10:12:14.668Z,98531.00
2023-01-04T10:17:55.189Z,98531.53
2023-01-04T10:23:18.564Z,98527.84
2023-01-04T10:28:22.991Z,98526.75
2023-01-04T10:33:46.779Z,98525.81
2023-01-04T10:39:04.331Z,98512.75
2023-01-04T10:44:14.089Z,98537.91
2023-01-04T10:49:26.053Z,98530.31
2023-01-04T10:54:33.592Z,98492.63
2023-01-04T10:59:50.791Z,98490.03
2023-01-04T11:05:39.166Z,98476.16
2023-01-04T11:10:55.825Z,98482.94
2023-01-04T11:15:59.091Z,98467.44
2023-01-04T11:21:04.739Z,98456.28
2023-01-04T11:26:15.950Z,98442.41
2023-01-04T11:32:01.696Z,98430.16
2023-01-04T11:37:03.502Z,98418.44
2023-01-04T11:42:06.153Z,98418.16
2023-01-04T11:47:23.362Z,98402.50
2023-01-04T11:52:31.903Z,98409.28
2023-01-04T11:57:35.139Z,98392.53
2023-01-04T12:07:59.575Z,98362.00
2023-01-04T12:13:02.069Z,98359.56
2023-01-04T12:18:16.640Z,98340.66
2023-01-04T12:23:18.975Z,98350.03
2023-01-04T12:28:36.644Z,98344.72
2023-01-04T12:33:39.994Z,98326.47
2023-01-04T12:39:22.645Z,98325.38
2023-01-04T12:44:37.143Z,98329.56
2023-01-04T12:49:41.901Z,98302.09
2023-01-04T12:54:48.555Z,98286.56
2023-01-04T13:00:24.001Z,98272.69
2023-01-04T13:11:01.755Z,98253.91
2023-01-04T13:16:31.314Z,98256.19
2023-01-04T13:21:42.070Z,98256.56
2023-01-04T13:26:51.596Z,98252.72
2023-01-04T13:32:17.009Z,98240.81
2023-01-04T13:37:24.803Z,98230.50
2023-01-04T13:42:31.805Z,98233.81
2023-01-04T13:47:39.590Z,98228.69
2023-01-04T13:52:58.398Z,98226.13
2023-01-04T13:58:16.705Z,98224.72
2023-01-04T14:03:27.575Z,98214.19
2023-01-04T14:08:58.704Z,98200.94
2023-01-04T14:14:00.559Z,98200.63
2023-01-04T14:19:48.853Z,98203.88
2023-01-04T14:25:21.339Z,98202.59
2023-01-04T14:30:19.839Z,98212.81
2023-01-04T14:35:22.049Z,98222.69
2023-01-04T14:40:28.146Z,98186.28
2023-01-04T14:45:30.010Z,98178.38
2023-01-04T14:50:31.829Z,98174.81
2023-01-04T14:55:33.660Z,98182.09
2023-01-04T15:00:35.731Z,98180.19
2023-01-04T15:05:38.184Z,98165.75
2023-01-04T15:10:40.098Z,98154.09
2023-01-04T15:15:42.330Z,98158.63
2023-01-04T15:20:44.941Z,98152.78
2023-01-04T15:25:46.797Z,98161.53
2023-01-04T15:30:48.712Z,98157.97
2023-01-04T15:36:02.759Z,98149.88
2023-01-04T15:41:32.798Z,98141.16
2023-01-04T15:46:34.744Z,98134.19
2023-01-04T15:51:36.667Z,98132.25
2023-01-04T15:56:38.669Z,98127.88
2023-01-04T16:01:40.674Z,98131.78
2023-01-04T16:06:42.580Z,98138.75
2023-01-04T16:12:03.097Z,98105.06
2023-01-04T16:17:05.007Z,98092.94
2023-01-04T16:22:06.874Z,98107.66
2023-01-04T16:27:09.836Z,98105.22
2023-01-04T16:32:11.680Z,98090.66
2023-01-04T16:37:13.527Z,98079.66
2023-01-04T16:42:15.482Z,98069.28
2023-01-04T16:47:17.427Z,98056.03
2023-01-04T16:52:19.686Z,98043.56
2023-01-04T16:57:21.642Z,98042.13
2023-01-04T17:02:23.661Z,98035.31
2023-01-04T17:07:28.197Z,98018.16
2023-01-04T17:12:47.505Z,98011.84
2023-01-04T17:17:50.972Z,98015.72
2023-01-04T17:22:52.794Z,98012.97
2023-01-04T17:27:54.655Z,98013.63
2023-01-04T17:32:56.468Z,98005.53
2023-01-04T17:37:58.472Z,98014.91
2023-01-04T17:43:00.489Z,98040.50
2023-01-04T17:48:03.052Z,98030.63
2023-01-04T17:53:05.111Z,98027.84
2023-01-04T17:58:10.095Z,98000.00
2023-01-04T18:03:14.462Z,97995.13
2023-01-04T18:08:16.246Z,97994.47
2023-01-04T18:13:18.145Z,97984.59
2023-01-04T18:18:19.885Z,97975.50
2023-01-04T18:23:25.779Z,97978.56
2023-01-04T18:28:28.274Z,97973.06
2023-01-04T18:33:30.243Z,97963.81
2023-01-04T18:38:32.651Z,97965.91
2023-01-04T18:43:36.098Z,97966.88
2023-01-04T18:48:37.977Z,97962.63
2023-01-04T18:53:39.747Z,97948.94
2023-01-04T18:58:41.543Z,97942.09
2023-01-04T19:03:45.415Z,97936.91
2023-01-04T19:08:55.057Z,97933.97
2023-01-04T19:13:58.568Z,97918.06
2023-01-04T19:19:00.768Z,97913.81
2023-01-04T19:24:02.605Z,97920.13
2023-01-04T19:29:05.297Z,97901.09
2023-01-04T19:34:09.976Z,97894.75
2023-01-04T19:39:11.840Z,97883.38
2023-01-04T19:44:14.695Z,97861.00
2023-01-04T19:49:17.350Z,97876.75
2023-01-04T19:54:25.123Z,97876.13
2023-01-04T19:59:27.450Z,97855.97
2023-01-04T20:04:31.398Z,97860.19
2023-01-04T20:09:34.541Z,97871.56
2023-01-04T20:14:36.358Z,97885.69
2023-01-04T20:19:38.251Z,97864.75
2023-01-04T20:24:40.229Z,97867.34
2023-01-04T20:29:42.096Z,97880.97
2023-01-04T20:34:43.969Z,97897.34
2023-01-04T20:39:45.744Z,97893.13
2023-01-04T20:44:47.538Z,97895.72
2023-01-04T20:49:49.413Z,97908.06
2023-01-04T20:54:51.265Z,97897.22
2023-01-04T20:59:54.067Z,97887.00
2023-01-04T21:04:55.859Z,97854.44
2023-01-04T21:09:58.877Z,97841.28
2023-01-04T21:15:00.916Z,97830.91
2023-01-04T21:20:03.112Z,97829.75
2023-01-04T21:25:05.529Z,97810.25
2023-01-04T21:30:07.719Z,97816.88
2023-01-04T21:35:09.814Z,97820.47
2023-01-04T21:40:12.132Z,97808.63
2023-01-04T21:45:13.900Z,97796.66
2023-01-04T21:50:17.332Z,97788.22
2023-01-04T21:55:19.348Z,97783.22
2023-01-04T22:00:23.447Z,97784.81
2023-01-04T22:05:25.337Z,97777.50
2023-01-04T22:10:27.274Z,97784.13
2023-01-04T22:15:29.414Z,97781.63
2023-01-04T22:20:31.372Z,97772.97
2023-01-04T22:25:34.708Z,97777.44
2023-01-04T22:30:41.009Z,97777.72
2023-01-04T22:35:42.877Z,97756.25
2023-01-04T22:40:44.748Z,97759.91
2023-01-04T22:45:46.732Z,97745.78
2023-01-04T22:50:48.534Z,97745.25
2023-01-04T23:01:12.705Z,97754.66
2023-01-04T23:06:14.863Z,97751.41
2023-01-04T23:11:18.974Z,97772.19
2023-01-04T23:16:26.251Z,97764.59
2023-01-04T23:21:30.903Z,97771.75
2023-01-04T23:26:33.694Z,97772.28
2023-01-04T23:31:35.616Z,97755.97
2023-01-04T23:36:39.880Z,97760.44
2023-01-04T23:41:45.443Z,97749.16
2023-01-04T23:47:12.098Z,97752.09
2023-01-04T23:52:13.984Z,97753.88
2023-01-04T23:57:15.817Z,97736.53
